Time;durP1;ratioP1;P1;durP2;ratioP2;P2;SDS_P1;SDS_P2;PMS_P1;PMS_P2;Temp;Humidity;BMP_temperature;BMP_pressure;BME280_temperature;BME280_humidity;BME280_pressure;Samples;Min_cycle;Max_cycle;Signal;HPM_P1;HPM_P2
2022/01/31 00:01:01;;;;;;;0.30;0.20;;;0.80;99.90;;;;;;4958403;29;20469;-79
2022/01/31 00:03:30;;;;;;;0.30;0.30;;;0.80;99.90;;;;;;4958943;28;20838;-79
2022/01/31 00:05:57;;;;;;;0.30;0.30;;;0.80;99.90;;;;;;4958368;29;20918;-79
2022/01/31 00:08:24;;;;;;;0.30;0.20;;;0.80;99.90;;;;;;4958387;29;20998;-79
2022/01/31 00:10:52;;;;;;;0.30;0.20;;;0.70;99.90;;;;;;4959167;29;20806;-79
2022/01/31 00:13:23;;;;;;;0.90;0.90;;;0.70;99.90;;;;;;4958225;29;20477;-79
2022/01/31 00:15:55;;;;;;;0.30;0.30;;;0.70;99.90;;;;;;4957950;29;20985;-79
2022/01/31 00:18:22;;;;;;;0.30;0.30;;;0.70;99.90;;;;;;4957986;29;20862;-79
2022/01/31 00:20:49;;;;;;;1.90;1.80;;;0.80;99.90;;;;;;4958071;29;20781;-79
2022/01/31 00:23:16;;;;;;;1.07;0.53;;;0.90;99.90;;;;;;4957741;29;20485;-79
2022/01/31 00:25:42;;;;;;;0.77;0.60;;;0.90;99.90;;;;;;4957955;29;20502;-79
2022/01/31 00:28:09;;;;;;;0.30;0.30;;;0.90;99.90;;;;;;4957414;28;20446;-79
2022/01/31 00:30:37;;;;;;;1.50;1.40;;;0.90;99.90;;;;;;4957863;29;20553;-79
2022/01/31 00:33:04;;;;;;;0.30;0.20;;;0.90;99.90;;;;;;4958021;28;20454;-80
2022/01/31 00:35:31;;;;;;;0.30;0.30;;;1.00;99.90;;;;;;4957865;29;20470;-79
2022/01/31 00:37:58;;;;;;;0.30;0.30;;;1.00;99.90;;;;;;4957823;29;20454;-79
2022/01/31 00:40:25;;;;;;;0.30;0.20;;;1.00;99.90;;;;;;4957578;28;20978;-79
2022/01/31 00:42:52;;;;;;;0.30;0.30;;;1.00;99.90;;;;;;4957475;29;20438;-79
2022/01/31 00:45:24;;;;;;;0.30;0.30;;;1.10;99.90;;;;;;4957377;29;20490;-79
2022/01/31 00:48:01;;;;;;;0.30;0.20;;;1.10;99.90;;;;;;4957726;29;20434;-79
2022/01/31 00:50:28;;;;;;;0.30;0.20;;;1.10;99.90;;;;;;4958324;29;20521;-79
2022/01/31 00:52:56;;;;;;;0.30;0.20;;;1.10;99.90;;;;;;4957606;29;20549;-79
2022/01/31 00:55:23;;;;;;;0.30;0.30;;;1.10;99.90;;;;;;4957498;29;20466;-79
2022/01/31 00:57:50;;;;;;;0.30;0.30;;;1.20;99.90;;;;;;4957511;29;20454;-79
2022/01/31 01:00:17;;;;;;;0.30;0.30;;;1.20;99.90;;;;;;4957518;29;20458;-79
2022/01/31 01:02:45;;;;;;;3.70;1.90;;;1.20;99.90;;;;;;4957412;29;20461;-79
2022/01/31 01:05:14;;;;;;;0.30;0.20;;;1.30;99.90;;;;;;4957251;29;20498;-79
2022/01/31 01:07:45;;;;;;;0.30;0.30;;;1.30;99.90;;;;;;4957372;29;20462;-79
2022/01/31 01:10:13;;;;;;;0.30;0.30;;;1.30;99.90;;;;;;4957364;29;20442;-79
2022/01/31 01:12:40;;;;;;;0.30;0.30;;;1.40;99.90;;;;;;4957062;29;20443;-79
2022/01/31 01:15:08;;;;;;;0.40;0.40;;;1.40;99.90;;;;;;4957158;29;20450;-79
2022/01/31 01:17:34;;;;;;;0.40;0.40;;;1.30;99.90;;;;;;4957198;28;20461;-79
2022/01/31 01:20:01;;;;;;;0.30;0.30;;;1.30;99.90;;;;;;4957431;29;20431;-79
2022/01/31 01:22:29;;;;;;;0.30;0.30;;;1.30;99.90;;;;;;4956775;29;20493;-79
2022/01/31 01:24:56;;;;;;;0.63;0.63;;;1.30;99.90;;;;;;4956878;29;20450;-79
2022/01/31 01:27:24;;;;;;;0.30;0.30;;;1.30;99.90;;;;;;4956964;29;20537;-79
2022/01/31 01:29:51;;;;;;;0.30;0.30;;;1.30;99.90;;;;;;4957003;28;20501;-79
2022/01/31 01:32:17;;;;;;;0.30;0.30;;;1.40;99.90;;;;;;4956773;29;20454;-79
2022/01/31 01:34:45;;;;;;;0.70;0.70;;;1.40;99.90;;;;;;4956609;29;20934;-79
2022/01/31 01:37:12;;;;;;;0.53;0.40;;;1.40;99.90;;;;;;4956719;29;20470;-79
2022/01/31 01:39:41;;;;;;;0.30;0.20;;;1.50;99.90;;;;;;4955928;28;20461;-79
2022/01/31 01:42:09;;;;;;;1.83;0.97;;;1.50;99.90;;;;;;4956637;29;20482;-79
2022/01/31 01:44:45;;;;;;;0.30;0.30;;;1.60;99.90;;;;;;4957113;28;20541;-79
2022/01/31 01:47:12;;;;;;;0.60;0.50;;;1.60;99.90;;;;;;4956464;29;20489;-79
2022/01/31 01:49:39;;;;;;;0.60;0.60;;;1.60;99.90;;;;;;4956297;29;20438;-79
2022/01/31 01:52:06;;;;;;;0.30;0.30;;;1.60;99.90;;;;;;4956218;29;20450;-79
2022/01/31 01:54:33;;;;;;;0.30;0.30;;;1.60;99.90;;;;;;4956197;29;20956;-79
2022/01/31 01:57:03;;;;;;;0.30;0.30;;;1.60;99.90;;;;;;4956370;29;20462;-79
2022/01/31 01:59:33;;;;;;;0.30;0.30;;;1.60;99.90;;;;;;4956095;29;20975;-79
2022/01/31 02:02:00;;;;;;;0.30;0.20;;;1.60;99.90;;;;;;4956312;29;20465;-79
2022/01/31 02:04:27;;;;;;;0.30;0.20;;;1.60;99.90;;;;;;4956014;29;20438;-79
2022/01/31 02:06:54;;;;;;;0.30;0.30;;;1.60;99.90;;;;;;4955953;29;20489;-80
2022/01/31 02:09:23;;;;;;;0.40;0.40;;;1.60;99.90;;;;;;4955906;29;20458;-80
2022/01/31 02:11:50;;;;;;;0.30;0.30;;;1.60;99.90;;;;;;4956167;29;20505;-80
2022/01/31 02:14:18;;;;;;;0.50;0.40;;;1.50;99.90;;;;;;4955774;29;20823;-79
2022/01/31 02:16:44;;;;;;;0.30;0.30;;;1.50;99.90;;;;;;4955832;29;20502;-79
2022/01/31 02:19:15;;;;;;;0.30;0.20;;;1.50;99.90;;;;;;4955876;29;20813;-79
2022/01/31 02:21:43;;;;;;;0.30;0.30;;;1.50;99.90;;;;;;4955820;29;20467;-79
2022/01/31 02:24:11;;;;;;;0.30;0.20;;;1.50;99.90;;;;;;4955673;29;20786;-79
2022/01/31 02:26:38;;;;;;;0.30;0.20;;;1.60;99.90;;;;;;4955723;29;20505;-79
2022/01/31 02:29:08;;;;;;;0.30;0.30;;;1.60;99.90;;;;;;4955885;29;20525;-79
2022/01/31 02:31:35;;;;;;;0.30;0.20;;;1.60;99.90;;;;;;4955520;29;20934;-79
2022/01/31 02:34:02;;;;;;;0.30;0.30;;;1.70;99.90;;;;;;4955479;29;20462;-79
2022/01/31 02:36:28;;;;;;;0.30;0.30;;;1.70;99.90;;;;;;4955412;29;20469;-79
2022/01/31 02:38:56;;;;;;;0.30;0.30;;;1.70;99.90;;;;;;4955728;29;20457;-84
2022/01/31 02:41:23;;;;;;;0.30;0.20;;;1.70;99.90;;;;;;4955485;29;20439;-83
2022/01/31 02:43:54;;;;;;;0.30;0.30;;;1.70;99.90;;;;;;4955680;29;20952;-84
2022/01/31 02:46:22;;;;;;;0.90;0.90;;;1.70;99.90;;;;;;4955478;29;20588;-84
2022/01/31 02:48:51;;;;;;;0.50;0.50;;;1.80;99.90;;;;;;4955554;29;20541;-84
2022/01/31 02:51:21;;;;;;;0.30;0.30;;;1.80;99.90;;;;;;4955373;28;20795;-84
2022/01/31 02:53:49;;;;;;;0.30;0.20;;;1.80;99.90;;;;;;4956233;29;20455;-84
2022/01/31 02:56:17;;;;;;;0.30;0.20;;;1.80;99.90;;;;;;4955451;29;20477;-84
2022/01/31 02:58:44;;;;;;;0.30;0.30;;;1.80;99.90;;;;;;4955222;29;20980;-84
2022/01/31 03:01:11;;;;;;;0.30;0.20;;;1.80;99.90;;;;;;4955483;29;20458;-84
2022/01/31 03:03:38;;;;;;;1.90;1.80;;;1.80;99.90;;;;;;4955368;29;20473;-84
2022/01/31 03:06:05;;;;;;;0.30;0.20;;;1.80;99.90;;;;;;4954965;29;21024;-83
2022/01/31 03:08:32;;;;;;;0.30;0.30;;;1.80;99.90;;;;;;4955130;29;20450;-84
2022/01/31 03:10:59;;;;;;;0.30;0.27;;;1.80;99.90;;;;;;4955050;29;20457;-84
2022/01/31 03:13:27;;;;;;;0.30;0.30;;;1.80;99.90;;;;;;4954978;29;20461;-84
2022/01/31 03:15:56;;;;;;;0.67;0.67;;;1.80;99.90;;;;;;4955220;29;20477;-84
2022/01/31 03:18:23;;;;;;;0.30;0.30;;;1.80;99.90;;;;;;4955301;29;20478;-84
2022/01/31 03:20:49;;;;;;;0.30;0.30;;;1.70;99.90;;;;;;4955022;29;20450;-83
2022/01/31 03:23:16;;;;;;;0.30;0.30;;;1.70;99.90;;;;;;4954327;29;20489;-84
2022/01/31 03:25:43;;;;;;;1.23;1.23;;;1.70;99.90;;;;;;4955118;29;20574;-84
2022/01/31 03:28:10;;;;;;;0.30;0.20;;;1.60;99.90;;;;;;4954863;29;20974;-83
2022/01/31 03:30:38;;;;;;;0.30;0.30;;;1.70;99.90;;;;;;4954920;29;20450;-78
2022/01/31 03:33:05;;;;;;;0.30;0.20;;;1.70;99.90;;;;;;4954971;29;20801;-77
2022/01/31 03:35:31;;;;;;;0.37;0.37;;;1.70;99.90;;;;;;4954711;29;20480;-77
2022/01/31 03:37:58;;;;;;;0.40;0.40;;;1.80;99.90;;;;;;4955048;29;20457;-77
2022/01/31 03:40:25;;;;;;;0.30;0.30;;;1.80;99.90;;;;;;4955040;29;20457;-77
2022/01/31 03:42:52;;;;;;;0.30;0.30;;;1.90;99.90;;;;;;4954776;29;20465;-77
2022/01/31 03:45:19;;;;;;;0.30;0.30;;;1.90;99.90;;;;;;4954982;29;20474;-77
2022/01/31 03:47:47;;;;;;;0.30;0.20;;;1.90;99.90;;;;;;4954916;29;20485;-77
2022/01/31 03:50:17;;;;;;;0.30;0.30;;;1.90;99.90;;;;;;4954979;29;20431;-77
2022/01/31 03:52:43;;;;;;;0.30;0.30;;;2.00;99.90;;;;;;4954653;29;20465;-77
2022/01/31 03:55:11;;;;;;;0.30;0.30;;;2.00;99.90;;;;;;4954864;29;20462;-77
2022/01/31 03:57:38;;;;;;;0.30;0.30;;;2.10;99.90;;;;;;4954720;29;20446;-77
2022/01/31 04:00:07;;;;;;;0.50;0.40;;;2.10;99.90;;;;;;4954875;29;20458;-77
2022/01/31 04:02:34;;;;;;;0.30;0.30;;;2.10;99.90;;;;;;4955599;28;20461;-77
2022/01/31 04:05:02;;;;;;;0.30;0.20;;;2.20;99.90;;;;;;4958102;29;20945;-77
2022/01/31 04:07:29;;;;;;;0.30;0.30;;;2.20;99.90;;;;;;4958059;28;21056;-77
2022/01/31 04:09:55;;;;;;;0.30;0.20;;;2.30;99.90;;;;;;4958386;29;20453;-77
2022/01/31 04:12:22;;;;;;;1.17;1.17;;;2.40;99.90;;;;;;4958384;29;20445;-77
2022/01/31 04:14:49;;;;;;;0.30;0.30;;;2.40;99.90;;;;;;4958001;29;20811;-77
2022/01/31 04:17:19;;;;;;;0.30;0.27;;;2.40;99.90;;;;;;4957944;29;20473;-77
2022/01/31 04:19:46;;;;;;;0.50;0.40;;;2.50;99.90;;;;;;4958267;29;20493;-77
2022/01/31 04:22:17;;;;;;;0.30;0.30;;;2.50;99.90;;;;;;4957894;29;20894;-77
2022/01/31 04:24:47;;;;;;;0.30;0.20;;;2.50;99.90;;;;;;4958199;29;20851;-77
2022/01/31 04:27:18;;;;;;;0.30;0.30;;;2.50;99.90;;;;;;4957885;29;20494;-77
2022/01/31 04:29:46;;;;;;;0.30;0.30;;;2.50;99.90;;;;;;4958070;29;20448;-77
2022/01/31 04:32:13;;;;;;;1.23;1.13;;;2.50;99.90;;;;;;4957683;29;20458;-77
2022/01/31 04:34:40;;;;;;;0.30;0.30;;;2.40;99.90;;;;;;4957987;28;20461;-77
2022/01/31 04:37:08;;;;;;;0.30;0.20;;;2.50;99.90;;;;;;4957821;29;20819;-77
2022/01/31 04:39:36;;;;;;;0.30;0.20;;;2.50;99.90;;;;;;4957601;29;20493;-77
2022/01/31 04:42:03;;;;;;;0.30;0.20;;;2.50;99.90;;;;;;4957570;29;20439;-84
2022/01/31 04:44:30;;;;;;;0.30;0.27;;;2.50;99.90;;;;;;4957518;28;20446;-84
2022/01/31 04:46:57;;;;;;;0.40;0.30;;;2.50;99.90;;;;;;4957611;29;21003;-77
2022/01/31 04:49:24;;;;;;;0.30;0.20;;;2.60;99.90;;;;;;4957496;29;20439;-79
2022/01/31 04:51:51;;;;;;;0.30;0.30;;;2.60;99.90;;;;;;4957423;29;20438;-80
2022/01/31 04:54:18;;;;;;;0.30;0.20;;;2.60;99.90;;;;;;4957603;29;20457;-77
2022/01/31 04:56:47;;;;;;;0.30;0.30;;;2.70;99.90;;;;;;4957495;29;20474;-77
2022/01/31 04:59:13;;;;;;;0.30;0.20;;;2.70;99.90;;;;;;4957516;29;20461;-77
2022/01/31 05:01:43;;;;;;;0.30;0.20;;;2.70;99.90;;;;;;4957486;29;20458;-79
2022/01/31 05:04:10;;;;;;;0.30;0.20;;;2.70;99.90;;;;;;4957413;29;20458;-79
2022/01/31 05:06:39;;;;;;;0.30;0.30;;;2.80;99.90;;;;;;4956943;29;20994;-79
2022/01/31 05:09:07;;;;;;;0.30;0.20;;;2.90;99.90;;;;;;4957069;29;20954;-79
2022/01/31 05:11:33;;;;;;;0.30;0.30;;;2.90;99.90;;;;;;4957043;28;20505;-84
2022/01/31 05:14:02;;;;;;;0.30;0.30;;;2.90;99.90;;;;;;4956088;28;20450;-84
2022/01/31 05:16:29;;;;;;;0.30;0.20;;;3.00;99.90;;;;;;4957188;29;20478;-80
2022/01/31 05:18:55;;;;;;;0.30;0.23;;;3.00;99.90;;;;;;4956833;29;20946;-80
2022/01/31 05:21:22;;;;;;;1.27;1.03;;;3.00;99.90;;;;;;4957129;29;20446;-80
2022/01/31 05:23:49;;;;;;;0.40;0.40;;;3.00;99.90;;;;;;4956668;29;20482;-80
2022/01/31 05:26:17;;;;;;;0.30;0.20;;;3.00;99.90;;;;;;4956941;28;20529;-84
2022/01/31 05:28:43;;;;;;;0.70;0.53;;;3.00;99.90;;;;;;4957047;29;20450;-84
2022/01/31 05:31:12;;;;;;;0.30;0.30;;;3.00;99.90;;;;;;4956730;29;20501;-78
2022/01/31 05:33:38;;;;;;;0.30;0.20;;;2.90;99.90;;;;;;4956894;29;20454;-78
2022/01/31 05:36:06;;;;;;;4.33;0.73;;;2.90;99.90;;;;;;4956811;29;20477;-78
2022/01/31 05:38:36;;;;;;;0.30;0.30;;;3.00;99.90;;;;;;4956787;29;20505;-78
2022/01/31 05:41:06;;;;;;;0.30;0.30;;;3.00;99.90;;;;;;4956670;29;20450;-78
2022/01/31 05:43:33;;;;;;;0.37;0.37;;;2.90;99.90;;;;;;4956727;29;20442;-78
2022/01/31 05:46:00;;;;;;;0.30;0.20;;;2.90;99.90;;;;;;4956299;29;20458;-78
2022/01/31 05:48:28;;;;;;;0.30;0.20;;;2.80;99.90;;;;;;4956183;29;20997;-78
2022/01/31 05:50:55;;;;;;;0.30;0.20;;;2.80;99.90;;;;;;4956342;29;20438;-78
2022/01/31 05:53:22;;;;;;;0.30;0.30;;;2.80;99.90;;;;;;4956247;29;20999;-78
2022/01/31 05:55:49;;;;;;;0.30;0.30;;;2.80;99.90;;;;;;4956357;29;20548;-78
2022/01/31 05:58:16;;;;;;;0.30;0.30;;;2.80;99.90;;;;;;4956416;29;20461;-78
2022/01/31 06:00:43;;;;;;;0.60;0.40;;;2.80;99.90;;;;;;4956377;29;20446;-78
2022/01/31 06:03:09;;;;;;;0.30;0.20;;;2.80;99.90;;;;;;4956340;29;20449;-78
2022/01/31 06:05:38;;;;;;;0.30;0.23;;;2.90;99.90;;;;;;4956234;29;20512;-78
2022/01/31 06:08:05;;;;;;;0.30;0.20;;;2.90;99.90;;;;;;4956694;29;20489;-78
2022/01/31 06:10:33;;;;;;;0.30;0.30;;;2.80;99.90;;;;;;4956173;29;20473;-78
2022/01/31 06:13:00;;;;;;;0.30;0.30;;;2.80;99.90;;;;;;4956102;29;20454;-78
2022/01/31 06:15:27;;;;;;;0.30;0.30;;;2.80;99.90;;;;;;4956057;29;20480;-78
2022/01/31 06:17:54;;;;;;;0.30;0.20;;;2.80;99.90;;;;;;4956731;29;20454;-78
2022/01/31 06:20:21;;;;;;;0.30;0.30;;;2.90;99.90;;;;;;4956035;29;20431;-78
2022/01/31 06:22:50;;;;;;;0.30;0.30;;;2.90;99.90;;;;;;4955643;29;20481;-78
2022/01/31 06:25:18;;;;;;;0.40;0.40;;;3.00;99.90;;;;;;4955524;28;20466;-78
2022/01/31 06:27:45;;;;;;;0.30;0.30;;;3.00;99.90;;;;;;4955812;29;20496;-78
2022/01/31 06:30:11;;;;;;;0.30;0.30;;;3.00;99.90;;;;;;4955829;29;20446;-78
2022/01/31 06:32:39;;;;;;;0.30;0.20;;;3.10;99.90;;;;;;4955868;29;20446;-78
2022/01/31 06:35:07;;;;;;;0.30;0.20;;;3.00;99.90;;;;;;4955490;29;20949;-78
2022/01/31 06:37:34;;;;;;;0.30;0.20;;;3.00;99.90;;;;;;4956321;29;20446;-78
2022/01/31 06:40:02;;;;;;;0.30;0.30;;;3.00;99.90;;;;;;4956017;29;20445;-78
2022/01/31 06:42:28;;;;;;;0.40;0.40;;;2.90;99.90;;;;;;4955460;29;20445;-78
2022/01/31 06:44:55;;;;;;;1.80;0.70;;;2.90;99.90;;;;;;4955368;29;20441;-78
2022/01/31 06:47:23;;;;;;;0.30;0.20;;;2.90;99.90;;;;;;4955385;29;20482;-78
2022/01/31 06:49:50;;;;;;;0.30;0.20;;;2.90;99.90;;;;;;4955564;29;20538;-78
2022/01/31 06:52:16;;;;;;;0.30;0.20;;;2.80;99.90;;;;;;4955248;29;20439;-78
2022/01/31 06:54:44;;;;;;;0.30;0.30;;;2.70;99.90;;;;;;4955535;29;20454;-78
2022/01/31 06:57:12;;;;;;;1.33;1.23;;;2.70;99.90;;;;;;4955381;29;20478;-77
2022/01/31 06:59:39;;;;;;;0.30;0.30;;;2.70;99.90;;;;;;4955495;29;20454;-83
2022/01/31 07:02:05;;;;;;;0.30;0.30;;;2.60;99.90;;;;;;4955151;29;20450;-83
2022/01/31 07:04:32;;;;;;;0.30;0.30;;;2.60;99.90;;;;;;4955677;29;20427;-83
2022/01/31 07:06:59;;;;;;;0.30;0.20;;;2.60;99.90;;;;;;4955099;29;20486;-83
2022/01/31 07:09:26;;;;;;;0.30;0.30;;;2.60;99.90;;;;;;4955088;29;20458;-80
2022/01/31 07:11:57;;;;;;;0.30;0.30;;;2.60;99.90;;;;;;4955243;29;20458;-80
2022/01/31 07:14:31;;;;;;;0.50;0.50;;;2.50;99.90;;;;;;4955025;29;20910;-79
2022/01/31 07:16:58;;;;;;;0.30;0.20;;;2.50;99.90;;;;;;4954926;29;21053;-79
2022/01/31 07:19:28;;;;;;;0.30;0.30;;;2.60;99.90;;;;;;4955285;29;20457;-79
2022/01/31 07:21:55;;;;;;;0.40;0.40;;;2.60;99.90;;;;;;4954672;29;20450;-79
2022/01/31 07:24:23;;;;;;;0.30;0.30;;;2.60;99.90;;;;;;4955560;29;20425;-79
2022/01/31 07:26:51;;;;;;;0.40;0.40;;;2.60;99.90;;;;;;4954937;29;20481;-79
2022/01/31 07:29:19;;;;;;;0.60;0.60;;;2.60;99.90;;;;;;4955198;29;20481;-84
2022/01/31 07:31:48;;;;;;;0.40;0.40;;;2.60;99.90;;;;;;4955187;29;20439;-83
2022/01/31 07:34:17;;;;;;;0.30;0.20;;;2.60;99.90;;;;;;4955142;29;20453;-83
2022/01/31 07:36:44;;;;;;;0.70;0.70;;;2.60;99.90;;;;;;4955034;28;20478;-82
2022/01/31 07:39:11;;;;;;;0.30;0.30;;;2.60;99.90;;;;;;4958515;29;20832;-79
2022/01/31 07:41:39;;;;;;;0.30;0.20;;;2.70;99.90;;;;;;4959373;29;20826;-79
2022/01/31 07:44:06;;;;;;;0.30;0.30;;;2.70;99.90;;;;;;4958600;29;20441;-79
2022/01/31 07:46:33;;;;;;;0.30;0.30;;;2.70;99.90;;;;;;4958501;29;21009;-79
2022/01/31 07:49:01;;;;;;;0.30;0.30;;;2.70;99.90;;;;;;4958753;28;20581;-79
2022/01/31 07:51:27;;;;;;;0.30;0.30;;;2.70;99.90;;;;;;4958729;29;20454;-79
2022/01/31 07:53:54;;;;;;;0.83;0.83;;;2.70;99.90;;;;;;4958316;29;20938;-79
2022/01/31 07:56:21;;;;;;;0.30;0.20;;;2.70;99.90;;;;;;4958560;29;20474;-79
2022/01/31 07:58:48;;;;;;;0.30;0.30;;;2.70;99.90;;;;;;4958654;29;20446;-79
2022/01/31 08:01:16;;;;;;;0.30;0.20;;;2.60;99.90;;;;;;4958281;29;20990;-79
2022/01/31 08:03:44;;;;;;;0.30;0.20;;;2.60;99.90;;;;;;4958514;29;20457;-79
2022/01/31 08:06:13;;;;;;;0.30;0.20;;;2.60;99.90;;;;;;4958128;29;20482;-79
2022/01/31 08:08:41;;;;;;;0.30;0.30;;;2.60;99.90;;;;;;4958170;29;20473;-79
2022/01/31 08:11:08;;;;;;;0.30;0.20;;;2.60;99.90;;;;;;4958335;29;20548;-79
2022/01/31 08:13:35;;;;;;;0.30;0.20;;;2.60;99.90;;;;;;4958020;29;20942;-79
2022/01/31 08:16:09;;;;;;;0.30;0.30;;;2.60;99.90;;;;;;4958198;29;20497;-79
2022/01/31 08:18:38;;;;;;;0.30;0.20;;;2.60;99.90;;;;;;4958383;28;20851;-79
2022/01/31 08:21:05;;;;;;;0.40;0.40;;;2.60;99.90;;;;;;4958168;29;20454;-79
2022/01/31 08:23:33;;;;;;;0.30;0.20;;;2.70;99.90;;;;;;4957804;29;20510;-79
2022/01/31 08:26:01;;;;;;;0.30;0.30;;;2.70;99.90;;;;;;4958024;29;20473;-79
2022/01/31 08:28:35;;;;;;;0.30;0.30;;;2.70;99.90;;;;;;4958015;29;20490;-79
2022/01/31 08:31:07;;;;;;;0.30;0.30;;;2.70;99.90;;;;;;4958087;29;20438;-79
2022/01/31 08:33:37;;;;;;;0.30;0.30;;;2.70;99.90;;;;;;4958026;29;20505;-79
2022/01/31 08:36:05;;;;;;;0.67;0.67;;;2.80;99.90;;;;;;4957882;29;20933;-79
2022/01/31 08:38:35;;;;;;;0.30;0.20;;;2.90;99.90;;;;;;4957910;29;20446;-79
2022/01/31 08:41:02;;;;;;;0.30;0.20;;;2.90;99.90;;;;;;4957869;29;20457;-79
2022/01/31 08:43:28;;;;;;;0.30;0.20;;;2.90;99.90;;;;;;4957500;29;20446;-79
2022/01/31 08:45:56;;;;;;;0.30;0.20;;;2.90;99.90;;;;;;4957777;29;20474;-79
2022/01/31 08:48:23;;;;;;;0.30;0.20;;;3.00;99.90;;;;;;4958243;28;20482;-79
2022/01/31 08:50:50;;;;;;;0.30;0.20;;;3.00;99.90;;;;;;4957765;29;20828;-79
2022/01/31 08:53:17;;;;;;;0.30;0.20;;;3.10;99.90;;;;;;4957416;28;20443;-79
2022/01/31 08:55:50;;;;;;;0.30;0.20;;;3.30;99.90;;;;;;4957535;29;20482;-79
2022/01/31 08:58:17;;;;;;;0.30;0.30;;;3.40;99.90;;;;;;4957561;29;20434;-79
2022/01/31 09:00:47;;;;;;;0.30;0.30;;;3.50;99.90;;;;;;4957152;29;20969;-81
2022/01/31 09:03:32;;;;;;;0.40;0.30;;;3.50;99.90;;;;;;4957702;29;20447;-79
2022/01/31 09:05:59;;;;;;;0.30;0.20;;;3.60;99.90;;;;;;4957353;29;20478;-79
2022/01/31 09:08:26;;;;;;;0.30;0.30;;;3.60;99.90;;;;;;4956992;29;20489;-78
2022/01/31 09:10:54;;;;;;;0.30;0.30;;;3.50;99.90;;;;;;4957318;29;20446;-79
2022/01/31 09:13:21;;;;;;;0.30;0.20;;;3.40;99.90;;;;;;4957030;29;20419;-79
2022/01/31 09:15:48;;;;;;;0.30;0.20;;;3.40;99.90;;;;;;4957121;29;20451;-79
2022/01/31 09:18:15;;;;;;;0.30;0.30;;;3.50;99.90;;;;;;4957238;29;20439;-81
2022/01/31 09:20:42;;;;;;;0.30;0.20;;;3.70;99.90;;;;;;4957195;29;20451;-78
2022/01/31 09:23:09;;;;;;;0.30;0.30;;;4.70;99.90;;;;;;4956767;29;20489;-80
2022/01/31 09:25:36;;;;;;;0.30;0.20;;;5.80;99.90;;;;;;4956740;29;20462;-79
2022/01/31 09:28:04;;;;;;;0.30;0.20;;;6.90;99.90;;;;;;4956654;29;20479;-79
2022/01/31 09:30:31;;;;;;;0.30;0.20;;;7.20;99.90;;;;;;4956997;29;20446;-79
2022/01/31 09:32:58;;;;;;;0.30;0.20;;;7.00;99.90;;;;;;4956932;29;20442;-79
2022/01/31 09:35:25;;;;;;;0.30;0.20;;;7.00;99.90;;;;;;4956816;29;20482;-79
2022/01/31 09:37:52;;;;;;;0.30;0.20;;;7.00;99.90;;;;;;4956873;29;20435;-79
2022/01/31 09:40:21;;;;;;;0.30;0.20;;;6.80;99.90;;;;;;4956606;29;20938;-78
2022/01/31 09:43:08;;;;;;;0.30;0.20;;;6.70;99.90;;;;;;4956776;29;20489;-79
2022/01/31 09:45:54;;;;;;;0.30;0.20;;;6.30;99.90;;;;;;4956639;29;20482;-79
2022/01/31 09:48:32;;;;;;;0.30;0.30;;;6.10;99.90;;;;;;4956608;29;20584;-79
2022/01/31 09:51:00;;;;;;;0.30;0.20;;;6.00;99.90;;;;;;4956796;29;20750;-79
2022/01/31 09:53:27;;;;;;;0.30;0.20;;;5.90;99.90;;;;;;4956564;29;20454;-79
2022/01/31 09:55:54;;;;;;;0.30;0.30;;;5.90;99.90;;;;;;4956823;29;20862;-79
2022/01/31 09:58:21;;;;;;;0.30;0.30;;;5.80;99.90;;;;;;4956363;29;20822;-79
2022/01/31 10:01:03;;;;;;;0.30;0.20;;;5.80;99.90;;;;;;4955419;28;21022;-79
2022/01/31 10:03:30;;;;;;;0.57;0.40;;;5.60;99.90;;;;;;4956978;29;20453;-79
2022/01/31 10:05:56;;;;;;;0.30;0.30;;;5.50;99.90;;;;;;4956289;29;20478;-79
2022/01/31 10:08:29;;;;;;;0.30;0.20;;;5.40;99.90;;;;;;4956162;29;20470;-79
2022/01/31 10:11:00;;;;;;;0.30;0.30;;;5.40;99.90;;;;;;4956214;29;20447;-79
2022/01/31 10:16:26;;;;;;;0.30;0.20;;;5.30;99.90;;;;;;4956148;29;20453;-79
2022/01/31 10:19:05;;;;;;;0.30;0.30;;;5.30;99.90;;;;;;4956135;29;20439;-79
2022/01/31 10:21:32;;;;;;;0.30;0.30;;;5.20;99.90;;;;;;4955822;29;20829;-79
2022/01/31 10:23:59;;;;;;;0.30;0.30;;;5.20;99.90;;;;;;4955572;29;20481;-79
2022/01/31 10:26:33;;;;;;;0.30;0.20;;;5.10;99.90;;;;;;4955603;29;21020;-79
2022/01/31 10:29:11;;;;;;;0.40;0.30;;;5.10;99.90;;;;;;4955865;29;20488;-79
2022/01/31 10:31:52;;;;;;;0.30;0.30;;;5.00;99.90;;;;;;4955892;29;20895;-79
2022/01/31 10:34:21;;;;;;;0.30;0.20;;;5.10;99.90;;;;;;4955535;29;20944;-79
2022/01/31 10:36:48;;;;;;;0.30;0.20;;;5.10;99.90;;;;;;4955691;29;20485;-79
2022/01/31 10:43:22;;;;;;;0.30;0.30;;;5.20;99.90;;;;;;4955679;29;20888;-79
2022/01/31 10:54:03;;;;;;;0.30;0.20;;;6.00;99.90;;;;;;4955607;29;20438;-79
2022/01/31 10:56:39;;;;;;;0.30;0.30;;;6.10;99.90;;;;;;4955537;28;20509;-79
2022/01/31 10:59:08;;;;;;;0.30;0.20;;;6.10;99.90;;;;;;4955229;29;20422;-79
2022/01/31 11:01:37;;;;;;;1.47;0.67;;;6.30;99.90;;;;;;4955480;29;20438;-79
2022/01/31 11:04:10;;;;;;;0.30;0.20;;;6.30;99.90;;;;;;4955407;29;20467;-79
2022/01/31 11:06:37;;;;;;;0.30;0.27;;;6.30;99.90;;;;;;4955043;29;20989;-79
2022/01/31 11:09:07;;;;;;;0.30;0.30;;;6.30;99.90;;;;;;4955354;29;20479;-79
2022/01/31 11:11:35;;;;;;;0.30;0.20;;;6.10;99.90;;;;;;4955275;29;20443;-79
2022/01/31 11:14:03;;;;;;;0.30;0.20;;;5.90;99.90;;;;;;4955586;29;20426;-79
2022/01/31 11:16:31;;;;;;;0.30;0.20;;;5.80;99.90;;;;;;4955246;29;20470;-79
2022/01/31 11:19:00;;;;;;;0.30;0.20;;;5.70;99.90;;;;;;4955335;29;20426;-79
2022/01/31 11:21:31;;;;;;;0.30;0.20;;;5.50;99.90;;;;;;4955665;29;20465;-79
2022/01/31 11:24:02;;;;;;;0.30;0.20;;;5.50;99.90;;;;;;4954814;29;20576;-79
2022/01/31 11:26:38;;;;;;;0.30;0.20;;;5.50;99.90;;;;;;4955374;29;20524;-79
2022/01/31 11:29:07;;;;;;;0.37;0.27;;;5.40;99.90;;;;;;4954901;29;20462;-80
2022/01/31 11:31:37;;;;;;;0.30;0.20;;;5.50;99.90;;;;;;4954904;29;20450;-80
2022/01/31 11:34:05;;;;;;;0.30;0.30;;;5.40;99.90;;;;;;4954787;29;21022;-79
2022/01/31 11:36:35;;;;;;;0.30;0.30;;;5.40;99.90;;;;;;4955021;29;20916;-79
2022/01/31 11:39:04;;;;;;;0.30;0.20;;;5.30;99.90;;;;;;4955772;29;20823;-79
2022/01/31 11:41:31;;;;;;;0.30;0.20;;;5.40;99.90;;;;;;4955104;29;20470;-79
2022/01/31 11:44:02;;;;;;;0.30;0.20;;;5.30;99.90;;;;;;4955087;29;20434;-79
2022/01/31 11:46:30;;;;;;;0.30;0.20;;;5.40;99.90;;;;;;4954997;29;20498;-79
2022/01/31 11:48:57;;;;;;;0.30;0.30;;;5.20;99.90;;;;;;4954737;29;20473;-79
2022/01/31 11:51:24;;;;;;;0.40;0.37;;;5.10;99.90;;;;;;4954932;29;20482;-79
2022/01/31 11:54:06;;;;;;;0.30;0.30;;;5.00;99.90;;;;;;4955812;29;20442;-79
2022/01/31 11:56:43;;;;;;;0.30;0.20;;;5.00;99.90;;;;;;4954611;29;21004;-79
2022/01/31 11:59:13;;;;;;;0.30;0.20;;;4.90;99.90;;;;;;4954980;29;20430;-79
2022/01/31 12:01:43;;;;;;;0.30;0.30;;;4.90;99.90;;;;;;4954967;28;20513;-79
2022/01/31 12:04:13;;;;;;;0.30;0.20;;;4.80;99.90;;;;;;4954916;29;20450;-79
2022/01/31 12:06:39;;;;;;;0.30;0.20;;;4.80;99.90;;;;;;4954832;29;20481;-79
2022/01/31 12:09:13;;;;;;;0.30;0.20;;;4.80;99.90;;;;;;4954806;29;20492;-79
2022/01/31 12:12:01;;;;;;;0.40;0.40;;;4.80;99.90;;;;;;4954865;29;20431;-79
2022/01/31 12:14:42;;;;;;;0.30;0.20;;;4.80;99.90;;;;;;4954515;29;20490;-79
2022/01/31 12:17:55;;;;;;;0.30;0.30;;;4.80;99.90;;;;;;4954517;28;20903;-80
2022/01/31 12:21:59;;;;;;;0.30;0.30;;;4.70;99.90;;;;;;4954788;28;20469;-79
2022/01/31 12:23:40;;;;;;;1.60;1.27;;;4.70;99.90;;;;;;4955298;28;20549;-79
2022/01/31 12:26:34;;;;;;;0.30;0.20;;;4.60;99.90;;;;;;4958128;29;20477;-79
2022/01/31 12:29:06;;;;;;;0.30;0.20;;;4.50;99.90;;;;;;4957802;28;20847;-79
2022/01/31 12:31:38;;;;;;;0.30;0.20;;;4.60;99.90;;;;;;4958109;29;20445;-79
2022/01/31 12:34:11;;;;;;;0.30;0.20;;;4.50;99.90;;;;;;4957986;29;20446;-79
2022/01/31 12:36:52;;;;;;;0.30;0.20;;;4.50;99.90;;;;;;4957811;28;20461;-79
2022/01/31 12:39:58;;;;;;;0.30;0.20;;;4.50;99.90;;;;;;4957949;29;20431;-79
2022/01/31 12:42:47;;;;;;;0.30;0.20;;;4.40;99.90;;;;;;4957894;29;20443;-79
2022/01/31 12:45:16;;;;;;;0.30;0.20;;;4.40;99.90;;;;;;4957971;29;20474;-79
2022/01/31 12:48:19;;;;;;;0.30;0.30;;;4.30;99.90;;;;;;4957564;29;20445;-80
2022/01/31 12:51:04;;;;;;;0.30;0.20;;;4.30;99.90;;;;;;4957823;28;20857;-79
2022/01/31 12:53:45;;;;;;;0.30;0.30;;;4.20;99.90;;;;;;4957688;29;20442;-79
2022/01/31 12:56:20;;;;;;;0.30;0.20;;;4.20;99.90;;;;;;4957678;29;20476;-79
2022/01/31 12:58:51;;;;;;;0.30;0.30;;;4.10;99.90;;;;;;4957327;29;20907;-79
2022/01/31 13:01:21;;;;;;;0.30;0.20;;;4.00;99.90;;;;;;4957585;29;20438;-79
2022/01/31 13:03:50;;;;;;;0.30;0.20;;;4.00;99.90;;;;;;4957229;29;20930;-79
2022/01/31 13:06:35;;;;;;;0.30;0.20;;;3.90;99.90;;;;;;4957102;29;20470;-79
2022/01/31 13:09:07;;;;;;;0.30;0.30;;;3.90;99.90;;;;;;4957146;29;20833;-79
2022/01/31 13:11:34;;;;;;;0.30;0.20;;;3.90;99.90;;;;;;4957362;29;20445;-79
2022/01/31 13:14:09;;;;;;;0.30;0.20;;;3.80;99.90;;;;;;4957296;29;20435;-79
2022/01/31 13:16:41;;;;;;;0.30;0.20;;;3.80;99.90;;;;;;4957236;29;20469;-79
2022/01/31 13:19:16;;;;;;;0.30;0.20;;;3.70;99.90;;;;;;4957069;29;20923;-79
2022/01/31 13:21:43;;;;;;;0.30;0.20;;;3.60;99.90;;;;;;4957034;29;20434;-78
2022/01/31 13:24:10;;;;;;;0.30;0.20;;;3.60;99.90;;;;;;4956850;29;20431;-78